createdAt,value
2022-08-31T06:01:16.739Z,16.525083612040135
2022-08-31T06:12:22.711Z,11.839464882943144
2022-08-31T06:22:07.032Z,10.25418060200669
2022-08-31T06:29:32.118Z,9.933110367892976
2022-08-31T06:37:57.937Z,7.080267558528428
2022-08-31T06:47:29.863Z,11.675585284280936
2022-08-31T06:58:53.814Z,6.1003344481605355
2022-08-31T07:09:40.285Z,7.688963210702341
2022-08-31T07:17:44.516Z,5.969899665551839
2022-08-31T07:24:22.832Z,4.719063545150502
2022-08-31T07:30:44.226Z,5.986622073578595
2022-08-31T07:37:05.832Z,4.745819397993311
2022-08-31T07:43:27.338Z,3.4247491638795986
2022-08-31T07:49:49.000Z,4.374581939799331
2022-08-31T08:07:33.180Z,3.468227424749164
2022-08-31T08:13:55.953Z,4.448160535117057
2022-08-31T08:20:17.625Z,3.6956521739130435
2022-08-31T08:27:04.170Z,3.488294314381271
2022-08-31T08:33:25.952Z,4.103678929765886
2022-08-31T08:39:47.830Z,3.431438127090301
2022-08-31T08:46:31.277Z,3.234113712374582
2022-08-31T08:58:17.295Z,3.100334448160535
2022-08-31T09:04:40.349Z,2.9698996655518393
2022-08-31T09:11:02.567Z,2.779264214046823
2022-08-31T09:21:46.554Z,1.8294314381270902
2022-08-31T09:28:16.164Z,2.4849498327759196
2022-08-31T09:34:37.571Z,2.782608695652174
2022-08-31T09:40:59.567Z,3.8862876254180603
2022-08-31T09:57:31.543Z,2.5819397993311037
2022-08-31T10:03:53.932Z,2.4147157190635453
2022-08-31T10:10:18.750Z,1.451505016722408
2022-08-31T10:16:51.550Z,3.2876254180602005
2022-08-31T10:23:55.850Z,3.230769230769231
2022-08-31T10:38:40.891Z,1.4581939799331103
2022-08-31T10:45:02.556Z,1.140468227424749
2022-08-31T10:51:24.078Z,2.5183946488294313
2022-08-31T10:57:45.044Z,1.434782608695652
2022-08-31T11:04:06.593Z,1.6889632107023411
2022-08-31T11:10:27.250Z,1.5785953177257526
2022-08-31T11:16:49.362Z,2.7324414715719065
2022-08-31T11:25:41.417Z,3.8896321070234112
2022-08-31T11:32:02.585Z,3.3578595317725752
2022-08-31T11:40:43.296Z,2.648829431438127
2022-08-31T11:47:05.915Z,1.5050167224080269
2022-08-31T11:53:26.699Z,2.9665551839464883
2022-08-31T11:59:47.931Z,2.5418060200668897
2022-08-31T12:06:08.646Z,2.591973244147157
2022-08-31T12:14:43.883Z,7.531772575250836
2022-08-31T12:21:05.799Z,1.9297658862876255
2022-08-31T12:32:26.167Z,2.317725752508361
2022-08-31T12:39:00.911Z,2.1672240802675584
2022-08-31T12:45:22.365Z,2.729096989966555
2022-08-31T12:51:45.992Z,4.531772575250836
2022-08-31T12:58:07.432Z,1.5117056856187292
2022-08-31T13:08:02.771Z,5.548494983277592
2022-08-31T13:14:24.157Z,3.254180602006689
2022-08-31T13:20:45.045Z,2.0033444816053514
2022-08-31T13:27:14.139Z,2.0334448160535117
2022-08-31T13:33:35.239Z,3.7926421404682276
2022-08-31T13:39:56.038Z,2.94314381270903
2022-08-31T13:46:16.985Z,1.919732441471572
2022-08-31T13:52:38.398Z,2.491638795986622
2022-08-31T13:58:59.761Z,2.3779264214046822
2022-08-31T14:05:21.411Z,2.1839464882943145
2022-08-31T14:11:42.591Z,2.4414715719063547
2022-08-31T14:18:27.058Z,2.9765886287625416
2022-08-31T14:24:59.836Z,2.57190635451505
2022-08-31T14:31:21.835Z,3.709030100334448
2022-08-31T14:37:45.021Z,2.9096989966555182
2022-08-31T14:44:07.450Z,3.5250836120401337
2022-08-31T14:50:30.686Z,2.1438127090301005
2022-08-31T15:02:26.409Z,2.739130434782609
2022-08-31T15:08:47.955Z,2.471571906354515
2022-08-31T15:15:09.970Z,3.2441471571906355
2022-08-31T15:21:31.629Z,3.879598662207358
2022-08-31T15:28:12.186Z,1.7357859531772575
2022-08-31T15:34:33.325Z,2.5418060200668897
2022-08-31T15:40:54.722Z,5.565217391304348
2022-08-31T15:51:23.298Z,3.762541806020067
2022-08-31T15:57:44.331Z,2.9096989966555182
2022-08-31T16:04:05.381Z,4.976588628762542
2022-08-31T16:14:33.614Z,2.1672240802675584
2022-08-31T16:20:55.759Z,4.591973244147157
2022-08-31T16:27:22.762Z,4.712374581939799
2022-08-31T16:33:43.484Z,3.1270903010033444
2022-08-31T16:40:04.802Z,3.0903010033444818
2022-08-31T16:46:40.203Z,2.9698996655518393
2022-08-31T16:53:04.297Z,5.414715719063545
2022-08-31T16:59:26.398Z,6.344481605351171
2022-08-31T17:05:48.601Z,4.581939799331104
2022-08-31T17:12:09.720Z,3.317725752508361
2022-08-31T17:18:31.016Z,2.4782608695652173
2022-08-31T17:24:55.832Z,5.1404682274247495
2022-08-31T17:37:13.309Z,10.100334448160535
2022-08-31T17:43:33.946Z,5.006688963210703
2022-08-31T17:49:55.157Z,3.8929765886287626
2022-08-31T17:56:16.343Z,7.983277591973244
2022-08-31T18:02:38.386Z,7.521739130434782
2022-08-31T18:09:03.163Z,8.33779264214047
2022-08-31T18:16:29.341Z,11.066889632107024
2022-08-31T18:23:04.704Z,4.933110367892977
2022-08-31T18:31:05.312Z,7.705685618729097
2022-08-31T18:37:28.331Z,10.645484949832776
2022-08-31T18:43:51.187Z,9.996655518394649
2022-08-31T18:50:13.238Z,10.59866220735786
2022-08-31T18:56:34.924Z,18.25083612040134
2022-08-31T19:06:08.041Z,17.093645484949832
2022-08-31T19:18:14.641Z,25.1438127090301
2022-08-31T19:31:50.084Z,9.963210702341136
2022-08-31T19:38:14.392Z,9.866220735785953
2022-08-31T19:45:22.457Z,6.839464882943144
2022-08-31T19:54:45.695Z,8.846153846153847
2022-08-31T20:01:28.468Z,9.578595317725753
2022-08-31T20:08:03.964Z,7.170568561872909
2022-08-31T20:14:27.170Z,7.197324414715719
2022-08-31T20:20:49.729Z,8.240802675585284
2022-08-31T20:27:22.835Z,5.929765886287625
2022-08-31T20:39:21.816Z,6.431438127090301
2022-08-31T20:49:37.943Z,8.839464882943144
2022-08-31T20:59:32.782Z,9.882943143812708
2022-08-31T21:05:53.706Z,6.668896321070235
2022-08-31T21:13:33.141Z,7.74247491638796
2022-08-31T21:19:54.512Z,5.976588628762542
2022-08-31T21:28:38.771Z,6.431438127090301
2022-08-31T21:35:00.639Z,4.555183946488294
2022-08-31T21:41:21.509Z,6.033444816053512
2022-08-31T21:47:42.674Z,5.311036789297659
2022-08-31T21:54:03.889Z,5.364548494983278
2022-08-31T22:00:25.012Z,4.25752508361204
2022-08-31T22:06:46.201Z,6.8996655518394645
2022-08-31T22:13:46.745Z,6.133779264214047
2022-08-31T22:20:08.515Z,5.8361204013377925
2022-08-31T22:26:36.878Z,8.0
2022-08-31T22:34:07.621Z,13.321070234113712
2022-08-31T22:40:28.908Z,8.993311036789297
2022-08-31T22:46:50.252Z,8.648829431438127
2022-08-31T22:53:12.400Z,5.765886287625418
2022-08-31T22:59:34.392Z,5.9397993311036785
2022-08-31T23:05:54.864Z,4.6923076923076925
2022-08-31T23:16:14.473Z,5.384615384615385
2022-08-31T23:22:35.780Z,7.050167224080267
2022-08-31T23:29:06.402Z,9.180602006688963
2022-08-31T23:35:27.479Z,5.39799331103679
2022-08-31T23:41:48.159Z,7.0602006688963215
2022-08-31T23:48:31.056Z,7.949832775919733
2022-08-31T23:54:52.483Z,8.846153846153847
